sensor_id;sensor_type;location;lat;lon;timestamp;P1;durP1;ratioP1;P2;durP2;ratioP2
50102;SDS011;35993;52.604;10.078;2022-08-21T00:01:25;5.30;;;2.42;;
50102;SDS011;35993;52.604;10.078;2022-08-21T00:03:53;5.20;;;2.65;;
50102;SDS011;35993;52.604;10.078;2022-08-21T00:06:19;3.63;;;1.98;;
50102;SDS011;35993;52.604;10.078;2022-08-21T00:08:45;3.88;;;2.00;;
50102;SDS011;35993;52.604;10.078;2022-08-21T00:11:11;4.57;;;2.30;;
50102;SDS011;35993;52.604;10.078;2022-08-21T00:13:37;5.72;;;2.10;;
50102;SDS011;35993;52.604;10.078;2022-08-21T00:16:03;5.55;;;2.10;;
50102;SDS011;35993;52.604;10.078;2022-08-21T00:18:29;5.47;;;1.90;;
50102;SDS011;35993;52.604;10.078;2022-08-21T00:20:55;4.32;;;2.30;;
50102;SDS011;35993;52.604;10.078;2022-08-21T00:23:21;10.52;;;2.30;;
50102;SDS011;35993;52.604;10.078;2022-08-21T00:25:47;6.03;;;2.35;;
50102;SDS011;35993;52.604;10.078;2022-08-21T00:28:14;5.05;;;2.33;;
50102;SDS011;35993;52.604;10.078;2022-08-21T00:30:40;4.93;;;2.00;;
50102;SDS011;35993;52.604;10.078;2022-08-21T00:33:06;5.47;;;2.10;;
50102;SDS011;35993;52.604;10.078;2022-08-21T00:35:34;5.45;;;2.20;;
50102;SDS011;35993;52.604;10.078;2022-08-21T00:38:02;4.97;;;2.20;;
50102;SDS011;35993;52.604;10.078;2022-08-21T00:40:35;3.15;;;2.00;;
50102;SDS011;35993;52.604;10.078;2022-08-21T00:43:08;5.40;;;2.22;;
50102;SDS011;35993;52.604;10.078;2022-08-21T00:45:35;8.23;;;2.65;;
50102;SDS011;35993;52.604;10.078;2022-08-21T00:48:03;4.90;;;2.15;;
50102;SDS011;35993;52.604;10.078;2022-08-21T00:50:31;4.28;;;2.17;;
50102;SDS011;35993;52.604;10.078;2022-08-21T00:53:00;4.53;;;2.20;;
50102;SDS011;35993;52.604;10.078;2022-08-21T00:55:28;6.57;;;2.10;;
50102;SDS011;35993;52.604;10.078;2022-08-21T00:57:56;2.90;;;1.92;;
50102;SDS011;35993;52.604;10.078;2022-08-21T01:00:25;3.67;;;1.92;;
50102;SDS011;35993;52.604;10.078;2022-08-21T01:02:54;4.00;;;1.90;;
50102;SDS011;35993;52.604;10.078;2022-08-21T01:05:22;7.00;;;2.35;;
50102;SDS011;35993;52.604;10.078;2022-08-21T01:07:47;3.45;;;1.77;;
50102;SDS011;35993;52.604;10.078;2022-08-21T01:10:13;6.45;;;2.17;;
50102;SDS011;35993;52.604;10.078;2022-08-21T01:12:40;3.47;;;1.60;;
50102;SDS011;35993;52.604;10.078;2022-08-21T01:15:07;5.45;;;1.80;;
50102;SDS011;35993;52.604;10.078;2022-08-21T01:17:33;2.83;;;1.83;;
50102;SDS011;35993;52.604;10.078;2022-08-21T01:20:01;4.57;;;2.13;;
50102;SDS011;35993;52.604;10.078;2022-08-21T01:22:29;4.07;;;1.80;;
50102;SDS011;35993;52.604;10.078;2022-08-21T01:24:55;4.93;;;2.00;;
50102;SDS011;35993;52.604;10.078;2022-08-21T01:27:20;2.53;;;1.70;;
50102;SDS011;35993;52.604;10.078;2022-08-21T01:32:21;6.55;;;1.85;;
50102;SDS011;35993;52.604;10.078;2022-08-21T01:34:50;5.13;;;2.00;;
50102;SDS011;35993;52.604;10.078;2022-08-21T01:37:17;3.60;;;1.90;;
50102;SDS011;35993;52.604;10.078;2022-08-21T01:39:43;3.97;;;2.63;;
50102;SDS011;35993;52.604;10.078;2022-08-21T01:42:09;3.42;;;2.00;;
50102;SDS011;35993;52.604;10.078;2022-08-21T01:44:36;4.03;;;2.22;;
50102;SDS011;35993;52.604;10.078;2022-08-21T01:47:03;5.78;;;2.20;;
50102;SDS011;35993;52.604;10.078;2022-08-21T01:49:31;8.95;;;2.60;;
50102;SDS011;35993;52.604;10.078;2022-08-21T01:51:56;5.75;;;2.78;;
50102;SDS011;35993;52.604;10.078;2022-08-21T01:54:22;4.65;;;2.10;;
50102;SDS011;35993;52.604;10.078;2022-08-21T01:56:48;8.05;;;2.45;;
50102;SDS011;35993;52.604;10.078;2022-08-21T01:59:17;5.70;;;2.20;;
50102;SDS011;35993;52.604;10.078;2022-08-21T02:01:42;6.97;;;2.08;;
50102;SDS011;35993;52.604;10.078;2022-08-21T02:04:09;3.92;;;2.00;;
50102;SDS011;35993;52.604;10.078;2022-08-21T02:06:35;5.43;;;2.03;;
50102;SDS011;35993;52.604;10.078;2022-08-21T02:09:02;4.72;;;2.08;;
50102;SDS011;35993;52.604;10.078;2022-08-21T02:11:29;4.22;;;1.80;;
50102;SDS011;35993;52.604;10.078;2022-08-21T02:13:55;3.58;;;1.90;;
50102;SDS011;35993;52.604;10.078;2022-08-21T02:16:21;4.47;;;2.08;;
50102;SDS011;35993;52.604;10.078;2022-08-21T02:18:46;4.15;;;2.10;;
50102;SDS011;35993;52.604;10.078;2022-08-21T02:21:12;3.38;;;2.10;;
50102;SDS011;35993;52.604;10.078;2022-08-21T02:23:38;4.53;;;2.05;;
50102;SDS011;35993;52.604;10.078;2022-08-21T02:26:04;4.35;;;2.10;;
50102;SDS011;35993;52.604;10.078;2022-08-21T02:28:32;4.03;;;1.80;;
50102;SDS011;35993;52.604;10.078;2022-08-21T02:30:59;4.45;;;2.00;;
50102;SDS011;35993;52.604;10.078;2022-08-21T02:33:25;3.55;;;1.80;;
50102;SDS011;35993;52.604;10.078;2022-08-21T02:35:51;3.42;;;2.03;;
50102;SDS011;35993;52.604;10.078;2022-08-21T02:38:19;5.03;;;2.08;;
50102;SDS011;35993;52.604;10.078;2022-08-21T02:40:48;5.00;;;2.00;;
50102;SDS011;35993;52.604;10.078;2022-08-21T02:43:16;3.28;;;2.15;;
50102;SDS011;35993;52.604;10.078;2022-08-21T02:45:43;5.38;;;1.90;;
50102;SDS011;35993;52.604;10.078;2022-08-21T02:48:11;4.20;;;2.03;;
50102;SDS011;35993;52.604;10.078;2022-08-21T02:50:41;7.30;;;1.92;;
50102;SDS011;35993;52.604;10.078;2022-08-21T02:53:08;3.95;;;2.17;;
50102;SDS011;35993;52.604;10.078;2022-08-21T02:55:36;4.25;;;2.10;;
50102;SDS011;35993;52.604;10.078;2022-08-21T02:58:04;3.42;;;1.80;;
50102;SDS011;35993;52.604;10.078;2022-08-21T03:00:31;3.78;;;1.83;;
50102;SDS011;35993;52.604;10.078;2022-08-21T03:02:58;4.20;;;2.20;;
50102;SDS011;35993;52.604;10.078;2022-08-21T03:05:25;3.08;;;1.95;;
50102;SDS011;35993;52.604;10.078;2022-08-21T03:07:53;4.32;;;1.98;;
50102;SDS011;35993;52.604;10.078;2022-08-21T03:10:20;5.47;;;1.98;;
50102;SDS011;35993;52.604;10.078;2022-08-21T03:12:47;4.22;;;2.08;;
50102;SDS011;35993;52.604;10.078;2022-08-21T03:15:15;5.78;;;2.10;;
50102;SDS011;35993;52.604;10.078;2022-08-21T03:17:42;3.97;;;2.10;;
50102;SDS011;35993;52.604;10.078;2022-08-21T03:20:10;6.68;;;2.00;;
50102;SDS011;35993;52.604;10.078;2022-08-21T03:22:36;4.60;;;2.22;;
50102;SDS011;35993;52.604;10.078;2022-08-21T03:25:02;3.47;;;2.10;;
50102;SDS011;35993;52.604;10.078;2022-08-21T03:27:28;4.35;;;1.98;;
50102;SDS011;35993;52.604;10.078;2022-08-21T03:29:56;4.95;;;2.15;;
50102;SDS011;35993;52.604;10.078;2022-08-21T03:32:22;4.05;;;2.08;;
50102;SDS011;35993;52.604;10.078;2022-08-21T03:34:48;4.13;;;1.90;;
50102;SDS011;35993;52.604;10.078;2022-08-21T03:37:14;3.25;;;2.13;;
50102;SDS011;35993;52.604;10.078;2022-08-21T03:39:40;4.10;;;1.92;;
50102;SDS011;35993;52.604;10.078;2022-08-21T03:42:07;5.78;;;2.08;;
50102;SDS011;35993;52.604;10.078;2022-08-21T03:44:33;3.55;;;1.85;;
50102;SDS011;35993;52.604;10.078;2022-08-21T03:46:59;5.50;;;1.83;;
50102;SDS011;35993;52.604;10.078;2022-08-21T03:49:25;2.38;;;2.00;;
50102;SDS011;35993;52.604;10.078;2022-08-21T03:51:51;4.03;;;2.10;;
50102;SDS011;35993;52.604;10.078;2022-08-21T03:54:17;2.80;;;1.83;;
50102;SDS011;35993;52.604;10.078;2022-08-21T03:56:42;2.70;;;1.92;;
50102;SDS011;35993;52.604;10.078;2022-08-21T03:59:08;3.75;;;2.10;;
50102;SDS011;35993;52.604;10.078;2022-08-21T04:01:34;3.83;;;1.85;;
50102;SDS011;35993;52.604;10.078;2022-08-21T04:04:00;6.15;;;1.85;;
50102;SDS011;35993;52.604;10.078;2022-08-21T04:06:25;4.28;;;2.00;;
50102;SDS011;35993;52.604;10.078;2022-08-21T04:08:52;2.88;;;2.00;;
50102;SDS011;35993;52.604;10.078;2022-08-21T04:11:18;2.53;;;1.70;;
50102;SDS011;35993;52.604;10.078;2022-08-21T04:13:44;3.42;;;1.88;;
50102;SDS011;35993;52.604;10.078;2022-08-21T04:16:11;3.75;;;2.10;;
50102;SDS011;35993;52.604;10.078;2022-08-21T04:18:37;3.20;;;1.85;;
50102;SDS011;35993;52.604;10.078;2022-08-21T04:21:03;3.13;;;1.90;;
50102;SDS011;35993;52.604;10.078;2022-08-21T04:23:29;3.45;;;1.95;;
50102;SDS011;35993;52.604;10.078;2022-08-21T04:25:55;2.60;;;1.80;;
50102;SDS011;35993;52.604;10.078;2022-08-21T04:28:22;3.55;;;2.45;;
50102;SDS011;35993;52.604;10.078;2022-08-21T04:30:50;3.55;;;2.17;;
50102;SDS011;35993;52.604;10.078;2022-08-21T04:33:17;4.28;;;1.98;;
50102;SDS011;35993;52.604;10.078;2022-08-21T04:35:43;4.95;;;1.58;;
50102;SDS011;35993;52.604;10.078;2022-08-21T04:38:09;3.72;;;1.88;;
50102;SDS011;35993;52.604;10.078;2022-08-21T04:40:35;3.40;;;1.95;;
50102;SDS011;35993;52.604;10.078;2022-08-21T04:43:03;3.78;;;1.80;;
50102;SDS011;35993;52.604;10.078;2022-08-21T04:45:34;2.85;;;1.67;;
50102;SDS011;35993;52.604;10.078;2022-08-21T04:48:03;4.55;;;2.00;;
50102;SDS011;35993;52.604;10.078;2022-08-21T04:50:45;5.03;;;1.88;;
50102;SDS011;35993;52.604;10.078;2022-08-21T04:53:14;3.33;;;2.00;;
50102;SDS011;35993;52.604;10.078;2022-08-21T04:55:47;2.92;;;1.65;;
50102;SDS011;35993;52.604;10.078;2022-08-21T04:58:15;3.20;;;1.85;;
50102;SDS011;35993;52.604;10.078;2022-08-21T05:00:43;5.15;;;2.10;;
50102;SDS011;35993;52.604;10.078;2022-08-21T05:03:11;4.53;;;2.00;;
50102;SDS011;35993;52.604;10.078;2022-08-21T05:05:37;4.28;;;2.10;;
50102;SDS011;35993;52.604;10.078;2022-08-21T05:08:05;3.72;;;2.40;;
50102;SDS011;35993;52.604;10.078;2022-08-21T05:10:33;3.60;;;2.15;;
50102;SDS011;35993;52.604;10.078;2022-08-21T05:12:59;3.67;;;2.08;;
50102;SDS011;35993;52.604;10.078;2022-08-21T05:15:25;5.75;;;2.45;;
50102;SDS011;35993;52.604;10.078;2022-08-21T05:17:51;4.72;;;2.33;;
50102;SDS011;35993;52.604;10.078;2022-08-21T05:20:17;4.57;;;2.42;;
50102;SDS011;35993;52.604;10.078;2022-08-21T05:22:43;6.07;;;2.33;;
50102;SDS011;35993;52.604;10.078;2022-08-21T05:25:09;3.55;;;1.92;;
50102;SDS011;35993;52.604;10.078;2022-08-21T05:27:35;4.60;;;2.50;;
50102;SDS011;35993;52.604;10.078;2022-08-21T05:30:01;6.30;;;2.30;;
50102;SDS011;35993;52.604;10.078;2022-08-21T05:32:28;4.07;;;2.10;;
50102;SDS011;35993;52.604;10.078;2022-08-21T05:34:54;3.38;;;2.13;;
50102;SDS011;35993;52.604;10.078;2022-08-21T05:37:20;5.00;;;2.20;;
50102;SDS011;35993;52.604;10.078;2022-08-21T05:39:46;3.85;;;2.08;;
50102;SDS011;35993;52.604;10.078;2022-08-21T05:42:12;4.10;;;2.40;;
50102;SDS011;35993;52.604;10.078;2022-08-21T05:44:38;3.42;;;2.40;;
50102;SDS011;35993;52.604;10.078;2022-08-21T05:47:05;4.00;;;2.20;;
50102;SDS011;35993;52.604;10.078;2022-08-21T05:49:32;3.92;;;2.17;;
50102;SDS011;35993;52.604;10.078;2022-08-21T05:51:58;2.75;;;2.08;;
50102;SDS011;35993;52.604;10.078;2022-08-21T05:54:24;3.45;;;2.40;;
50102;SDS011;35993;52.604;10.078;2022-08-21T05:56:50;4.32;;;2.60;;
50102;SDS011;35993;52.604;10.078;2022-08-21T05:59:17;7.53;;;2.58;;
50102;SDS011;35993;52.604;10.078;2022-08-21T06:01:43;3.85;;;2.25;;
50102;SDS011;35993;52.604;10.078;2022-08-21T06:04:10;6.32;;;2.35;;
50102;SDS011;35993;52.604;10.078;2022-08-21T06:06:36;4.32;;;2.30;;
50102;SDS011;35993;52.604;10.078;2022-08-21T06:09:02;5.03;;;2.70;;
50102;SDS011;35993;52.604;10.078;2022-08-21T06:11:29;3.10;;;2.42;;
50102;SDS011;35993;52.604;10.078;2022-08-21T06:13:55;4.25;;;2.42;;
50102;SDS011;35993;52.604;10.078;2022-08-21T06:16:21;5.05;;;2.67;;
50102;SDS011;35993;52.604;10.078;2022-08-21T06:18:48;6.65;;;2.65;;
50102;SDS011;35993;52.604;10.078;2022-08-21T06:21:14;4.70;;;2.50;;
50102;SDS011;35993;52.604;10.078;2022-08-21T06:23:40;3.63;;;2.33;;
50102;SDS011;35993;52.604;10.078;2022-08-21T06:26:07;3.88;;;2.20;;
50102;SDS011;35993;52.604;10.078;2022-08-21T06:28:34;3.33;;;2.20;;
50102;SDS011;35993;52.604;10.078;2022-08-21T06:31:15;3.88;;;2.75;;
50102;SDS011;35993;52.604;10.078;2022-08-21T06:33:46;6.53;;;2.25;;
50102;SDS011;35993;52.604;10.078;2022-08-21T06:36:15;4.22;;;2.40;;
50102;SDS011;35993;52.604;10.078;2022-08-21T06:38:41;5.28;;;2.35;;
50102;SDS011;35993;52.604;10.078;2022-08-21T06:41:07;4.70;;;2.47;;
50102;SDS011;35993;52.604;10.078;2022-08-21T06:43:34;5.72;;;2.22;;
50102;SDS011;35993;52.604;10.078;2022-08-21T06:46:02;5.72;;;2.47;;
50102;SDS011;35993;52.604;10.078;2022-08-21T06:48:28;3.42;;;2.10;;
50102;SDS011;35993;52.604;10.078;2022-08-21T06:50:56;4.18;;;2.28;;
50102;SDS011;35993;52.604;10.078;2022-08-21T06:53:21;5.28;;;2.20;;
50102;SDS011;35993;52.604;10.078;2022-08-21T06:55:48;5.15;;;2.25;;
50102;SDS011;35993;52.604;10.078;2022-08-21T06:58:14;5.07;;;2.50;;
50102;SDS011;35993;52.604;10.078;2022-08-21T07:00:43;3.95;;;2.10;;
50102;SDS011;35993;52.604;10.078;2022-08-21T07:03:22;5.10;;;2.25;;
50102;SDS011;35993;52.604;10.078;2022-08-21T07:05:53;4.90;;;2.50;;
50102;SDS011;35993;52.604;10.078;2022-08-21T07:08:24;4.45;;;2.20;;
50102;SDS011;35993;52.604;10.078;2022-08-21T07:10:53;4.30;;;2.30;;
50102;SDS011;35993;52.604;10.078;2022-08-21T07:13:23;4.35;;;2.20;;
50102;SDS011;35993;52.604;10.078;2022-08-21T07:15:49;3.40;;;2.20;;
50102;SDS011;35993;52.604;10.078;2022-08-21T07:18:17;11.65;;;2.75;;
50102;SDS011;35993;52.604;10.078;2022-08-21T07:20:46;5.75;;;2.08;;
50102;SDS011;35993;52.604;10.078;2022-08-21T07:23:19;5.05;;;2.13;;
50102;SDS011;35993;52.604;10.078;2022-08-21T07:25:49;6.22;;;2.17;;
50102;SDS011;35993;52.604;10.078;2022-08-21T07:28:17;5.15;;;2.08;;
50102;SDS011;35993;52.604;10.078;2022-08-21T07:30:43;5.18;;;2.20;;
50102;SDS011;35993;52.604;10.078;2022-08-21T07:33:11;4.45;;;2.00;;
50102;SDS011;35993;52.604;10.078;2022-08-21T07:35:37;3.97;;;1.95;;
50102;SDS011;35993;52.604;10.078;2022-08-21T07:38:06;5.07;;;2.08;;
50102;SDS011;35993;52.604;10.078;2022-08-21T07:40:34;4.45;;;2.15;;
50102;SDS011;35993;52.604;10.078;2022-08-21T07:43:03;3.95;;;2.28;;
50102;SDS011;35993;52.604;10.078;2022-08-21T07:45:28;6.25;;;2.20;;
50102;SDS011;35993;52.604;10.078;2022-08-21T07:47:54;4.65;;;2.08;;
50102;SDS011;35993;52.604;10.078;2022-08-21T07:50:21;5.68;;;1.88;;
50102;SDS011;35993;52.604;10.078;2022-08-21T07:52:50;5.82;;;2.00;;
50102;SDS011;35993;52.604;10.078;2022-08-21T07:55:16;6.88;;;2.35;;
50102;SDS011;35993;52.604;10.078;2022-08-21T07:57:48;4.85;;;2.20;;
50102;SDS011;35993;52.604;10.078;2022-08-21T08:00:15;5.65;;;2.20;;
50102;SDS011;35993;52.604;10.078;2022-08-21T08:02:45;5.50;;;2.33;;
50102;SDS011;35993;52.604;10.078;2022-08-21T08:05:15;5.47;;;2.42;;
50102;SDS011;35993;52.604;10.078;2022-08-21T08:07:42;7.07;;;3.30;;
50102;SDS011;35993;52.604;10.078;2022-08-21T08:10:08;6.18;;;2.67;;
50102;SDS011;35993;52.604;10.078;2022-08-21T08:12:36;6.47;;;2.67;;
50102;SDS011;35993;52.604;10.078;2022-08-21T08:15:03;6.57;;;2.53;;
50102;SDS011;35993;52.604;10.078;2022-08-21T08:17:31;6.30;;;2.40;;
50102;SDS011;35993;52.604;10.078;2022-08-21T08:19:57;7.10;;;2.63;;
50102;SDS011;35993;52.604;10.078;2022-08-21T08:22:24;4.72;;;2.30;;
50102;SDS011;35993;52.604;10.078;2022-08-21T08:24:50;5.53;;;2.75;;
50102;SDS011;35993;52.604;10.078;2022-08-21T08:27:17;6.35;;;2.38;;
50102;SDS011;35993;52.604;10.078;2022-08-21T08:29:43;7.40;;;2.28;;
50102;SDS011;35993;52.604;10.078;2022-08-21T08:32:09;6.28;;;2.03;;
50102;SDS011;35993;52.604;10.078;2022-08-21T08:34:35;4.18;;;2.25;;
50102;SDS011;35993;52.604;10.078;2022-08-21T08:37:03;5.78;;;2.33;;
50102;SDS011;35993;52.604;10.078;2022-08-21T08:39:30;6.07;;;2.05;;
50102;SDS011;35993;52.604;10.078;2022-08-21T08:42:15;6.50;;;1.88;;
50102;SDS011;35993;52.604;10.078;2022-08-21T08:44:44;9.57;;;2.60;;
50102;SDS011;35993;52.604;10.078;2022-08-21T08:47:12;4.47;;;1.95;;
50102;SDS011;35993;52.604;10.078;2022-08-21T08:49:53;5.18;;;2.13;;
50102;SDS011;35993;52.604;10.078;2022-08-21T08:52:30;4.68;;;1.90;;
50102;SDS011;35993;52.604;10.078;2022-08-21T08:55:03;3.72;;;1.80;;
50102;SDS011;35993;52.604;10.078;2022-08-21T08:57:34;6.55;;;1.88;;
50102;SDS011;35993;52.604;10.078;2022-08-21T09:00:04;3.20;;;1.67;;
50102;SDS011;35993;52.604;10.078;2022-08-21T09:02:39;4.60;;;2.10;;
50102;SDS011;35993;52.604;10.078;2022-08-21T09:05:06;7.25;;;1.98;;
50102;SDS011;35993;52.604;10.078;2022-08-21T09:07:38;4.10;;;1.90;;
50102;SDS011;35993;52.604;10.078;2022-08-21T09:18:13;6.63;;;2.30;;
50102;SDS011;35993;52.604;10.078;2022-08-21T09:26:21;5.78;;;2.00;;
50102;SDS011;35993;52.604;10.078;2022-08-21T09:28:54;5.97;;;2.00;;
50102;SDS011;35993;52.604;10.078;2022-08-21T09:31:30;7.65;;;2.00;;
50102;SDS011;35993;52.604;10.078;2022-08-21T09:33:59;7.97;;;1.80;;
50102;SDS011;35993;52.604;10.078;2022-08-21T09:36:47;5.10;;;1.80;;
50102;SDS011;35993;52.604;10.078;2022-08-21T09:39:25;4.55;;;1.90;;
50102;SDS011;35993;52.604;10.078;2022-08-21T09:41:55;4.90;;;1.80;;
50102;SDS011;35993;52.604;10.078;2022-08-21T09:44:33;6.40;;;1.90;;
50102;SDS011;35993;52.604;10.078;2022-08-21T09:47:05;3.97;;;1.63;;
50102;SDS011;35993;52.604;10.078;2022-08-21T09:49:36;4.03;;;1.70;;
50102;SDS011;35993;52.604;10.078;2022-08-21T09:52:06;4.75;;;1.80;;
50102;SDS011;35993;52.604;10.078;2022-08-21T09:54:48;4.15;;;1.85;;
50102;SDS011;35993;52.604;10.078;2022-08-21T09:57:24;6.65;;;1.80;;
50102;SDS011;35993;52.604;10.078;2022-08-21T10:02:45;4.32;;;1.52;;
50102;SDS011;35993;52.604;10.078;2022-08-21T10:05:25;5.57;;;1.90;;
50102;SDS011;35993;52.604;10.078;2022-08-21T10:07:52;5.10;;;1.77;;
50102;SDS011;35993;52.604;10.078;2022-08-21T10:10:19;3.22;;;1.60;;
50102;SDS011;35993;52.604;10.078;2022-08-21T10:20:52;4.70;;;1.70;;
50102;SDS011;35993;52.604;10.078;2022-08-21T10:34:29;4.70;;;2.25;;
50102;SDS011;35993;52.604;10.078;2022-08-21T10:39:36;2.95;;;1.52;;
50102;SDS011;35993;52.604;10.078;2022-08-21T10:42:17;6.07;;;2.00;;
50102;SDS011;35993;52.604;10.078;2022-08-21T10:50:02;5.90;;;1.50;;
50102;SDS011;35993;52.604;10.078;2022-08-21T10:52:59;4.45;;;1.98;;
50102;SDS011;35993;52.604;10.078;2022-08-21T10:55:33;5.50;;;1.52;;
50102;SDS011;35993;52.604;10.078;2022-08-21T11:00:40;4.32;;;1.60;;
50102;SDS011;35993;52.604;10.078;2022-08-21T11:03:11;4.10;;;1.52;;
50102;SDS011;35993;52.604;10.078;2022-08-21T11:05:44;2.72;;;1.63;;
50102;SDS011;35993;52.604;10.078;2022-08-21T11:08:17;3.42;;;1.40;;
50102;SDS011;35993;52.604;10.078;2022-08-21T11:10:49;4.82;;;2.05;;
50102;SDS011;35993;52.604;10.078;2022-08-21T11:13:34;6.72;;;1.80;;
50102;SDS011;35993;52.604;10.078;2022-08-21T11:16:30;3.10;;;1.45;;
50102;SDS011;35993;52.604;10.078;2022-08-21T11:19:05;3.65;;;1.58;;
50102;SDS011;35993;52.604;10.078;2022-08-21T11:21:58;3.72;;;1.42;;
50102;SDS011;35993;52.604;10.078;2022-08-21T11:24:44;4.78;;;1.50;;
50102;SDS011;35993;52.604;10.078;2022-08-21T11:29:53;3.85;;;1.50;;
50102;SDS011;35993;52.604;10.078;2022-08-21T11:32:39;6.45;;;1.70;;
50102;SDS011;35993;52.604;10.078;2022-08-21T11:43:38;2.53;;;1.35;;
50102;SDS011;35993;52.604;10.078;2022-08-21T11:51:58;4.03;;;1.30;;
50102;SDS011;35993;52.604;10.078;2022-08-21T11:54:52;3.08;;;1.60;;
50102;SDS011;35993;52.604;10.078;2022-08-21T11:57:46;3.10;;;1.45;;
50102;SDS011;35993;52.604;10.078;2022-08-21T12:03:11;6.38;;;1.63;;
50102;SDS011;35993;52.604;10.078;2022-08-21T12:05:55;4.68;;;1.30;;
50102;SDS011;35993;52.604;10.078;2022-08-21T12:08:28;5.47;;;1.38;;
50102;SDS011;35993;52.604;10.078;2022-08-21T12:11:07;4.95;;;1.45;;
50102;SDS011;35993;52.604;10.078;2022-08-21T12:16:32;3.53;;;1.23;;
50102;SDS011;35993;52.604;10.078;2022-08-21T12:19:07;5.20;;;1.60;;
50102;SDS011;35993;52.604;10.078;2022-08-21T12:24:38;5.75;;;1.50;;
50102;SDS011;35993;52.604;10.078;2022-08-21T12:27:28;3.08;;;1.40;;
50102;SDS011;35993;52.604;10.078;2022-08-21T12:29:59;4.63;;;1.50;;
50102;SDS011;35993;52.604;10.078;2022-08-21T12:32:28;5.57;;;1.30;;
50102;SDS011;35993;52.604;10.078;2022-08-21T12:35:18;3.70;;;1.60;;
50102;SDS011;35993;52.604;10.078;2022-08-21T12:38:34;4.55;;;1.50;;
50102;SDS011;35993;52.604;10.078;2022-08-21T12:40:54;5.28;;;1.30;;
50102;SDS011;35993;52.604;10.078;2022-08-21T12:43:27;3.10;;;1.38;;
50102;SDS011;35993;52.604;10.078;2022-08-21T12:45:58;4.63;;;1.63;;
50102;SDS011;35993;52.604;10.078;2022-08-21T12:51:11;2.38;;;1.30;;
50102;SDS011;35993;52.604;10.078;2022-08-21T12:56:26;4.22;;;1.25;;
50102;SDS011;35993;52.604;10.078;2022-08-21T12:58:56;3.50;;;1.55;;
50102;SDS011;35993;52.604;10.078;2022-08-21T13:04:53;5.25;;;1.30;;
50102;SDS011;35993;52.604;10.078;2022-08-21T13:07:14;5.95;;;1.50;;
50102;SDS011;35993;52.604;10.078;2022-08-21T13:09:48;3.00;;;1.25;;
50102;SDS011;35993;52.604;10.078;2022-08-21T13:12:17;3.67;;;1.27;;
50102;SDS011;35993;52.604;10.078;2022-08-21T13:14:46;4.32;;;1.77;;
50102;SDS011;35993;52.604;10.078;2022-08-21T13:17:17;4.30;;;2.00;;
50102;SDS011;35993;52.604;10.078;2022-08-21T13:20:02;5.45;;;1.65;;
50102;SDS011;35993;52.604;10.078;2022-08-21T13:22:31;5.22;;;1.50;;
50102;SDS011;35993;52.604;10.078;2022-08-21T13:24:57;5.63;;;1.40;;
50102;SDS011;35993;52.604;10.078;2022-08-21T13:27:26;4.18;;;1.45;;
50102;SDS011;35993;52.604;10.078;2022-08-21T13:30:05;2.75;;;1.77;;
50102;SDS011;35993;52.604;10.078;2022-08-21T13:32:38;4.10;;;1.45;;
50102;SDS011;35993;52.604;10.078;2022-08-21T13:35:08;3.65;;;1.45;;
50102;SDS011;35993;52.604;10.078;2022-08-21T13:37:36;4.25;;;1.58;;
50102;SDS011;35993;52.604;10.078;2022-08-21T13:40:06;3.42;;;1.55;;
50102;SDS011;35993;52.604;10.078;2022-08-21T13:42:34;3.83;;;1.25;;
50102;SDS011;35993;52.604;10.078;2022-08-21T13:45:00;2.63;;;1.20;;
50102;SDS011;35993;52.604;10.078;2022-08-21T13:47:25;3.00;;;1.13;;
50102;SDS011;35993;52.604;10.078;2022-08-21T13:49:51;6.18;;;1.50;;
50102;SDS011;35993;52.604;10.078;2022-08-21T13:52:22;4.35;;;1.73;;
50102;SDS011;35993;52.604;10.078;2022-08-21T13:55:06;5.53;;;1.90;;
50102;SDS011;35993;52.604;10.078;2022-08-21T13:57:34;5.38;;;1.50;;
50102;SDS011;35993;52.604;10.078;2022-08-21T14:02:50;3.70;;;1.42;;
50102;SDS011;35993;52.604;10.078;2022-08-21T14:05:28;3.38;;;1.40;;
50102;SDS011;35993;52.604;10.078;2022-08-21T14:08:12;5.22;;;1.30;;
50102;SDS011;35993;52.604;10.078;2022-08-21T14:10:42;3.50;;;1.27;;
50102;SDS011;35993;52.604;10.078;2022-08-21T14:13:21;5.70;;;1.90;;
50102;SDS011;35993;52.604;10.078;2022-08-21T14:15:57;4.57;;;1.67;;
50102;SDS011;35993;52.604;10.078;2022-08-21T14:18:24;4.30;;;1.88;;
50102;SDS011;35993;52.604;10.078;2022-08-21T14:20:51;4.78;;;1.50;;
50102;SDS011;35993;52.604;10.078;2022-08-21T14:23:28;4.47;;;1.45;;
50102;SDS011;35993;52.604;10.078;2022-08-21T14:25:53;2.40;;;1.30;;
50102;SDS011;35993;52.604;10.078;2022-08-21T14:28:28;3.58;;;1.70;;
50102;SDS011;35993;52.604;10.078;2022-08-21T14:30:57;5.38;;;1.70;;
50102;SDS011;35993;52.604;10.078;2022-08-21T14:33:25;2.70;;;1.40;;
50102;SDS011;35993;52.604;10.078;2022-08-21T14:35:57;3.30;;;1.35;;
50102;SDS011;35993;52.604;10.078;2022-08-21T14:38:24;5.22;;;1.58;;
50102;SDS011;35993;52.604;10.078;2022-08-21T14:40:53;3.50;;;1.35;;
50102;SDS011;35993;52.604;10.078;2022-08-21T14:43:22;3.97;;;1.73;;
50102;SDS011;35993;52.604;10.078;2022-08-21T14:45:48;3.65;;;1.38;;
50102;SDS011;35993;52.604;10.078;2022-08-21T14:48:14;2.38;;;1.20;;
50102;SDS011;35993;52.604;10.078;2022-08-21T14:50:40;4.50;;;1.50;;
50102;SDS011;35993;52.604;10.078;2022-08-21T14:53:06;3.97;;;1.50;;
50102;SDS011;35993;52.604;10.078;2022-08-21T14:55:32;4.15;;;1.60;;
50102;SDS011;35993;52.604;10.078;2022-08-21T14:58:21;3.45;;;1.42;;
50102;SDS011;35993;52.604;10.078;2022-08-21T15:00:50;4.88;;;1.48;;
50102;SDS011;35993;52.604;10.078;2022-08-21T15:03:18;3.20;;;1.30;;
50102;SDS011;35993;52.604;10.078;2022-08-21T15:05:44;3.53;;;1.40;;
50102;SDS011;35993;52.604;10.078;2022-08-21T15:08:10;3.17;;;1.50;;
50102;SDS011;35993;52.604;10.078;2022-08-21T15:10:36;3.08;;;1.40;;
50102;SDS011;35993;52.604;10.078;2022-08-21T15:13:02;4.45;;;1.40;;
50102;SDS011;35993;52.604;10.078;2022-08-21T15:15:34;3.92;;;1.40;;
50102;SDS011;35993;52.604;10.078;2022-08-21T15:18:08;4.38;;;1.70;;
50102;SDS011;35993;52.604;10.078;2022-08-21T15:20:35;4.20;;;1.45;;
50102;SDS011;35993;52.604;10.078;2022-08-21T15:23:01;4.22;;;1.42;;
50102;SDS011;35993;52.604;10.078;2022-08-21T15:25:28;3.05;;;1.33;;
50102;SDS011;35993;52.604;10.078;2022-08-21T15:27:54;3.58;;;1.30;;
50102;SDS011;35993;52.604;10.078;2022-08-21T15:30:21;4.57;;;1.40;;
50102;SDS011;35993;52.604;10.078;2022-08-21T15:32:47;8.60;;;1.90;;
50102;SDS011;35993;52.604;10.078;2022-08-21T15:35:13;4.32;;;1.52;;
50102;SDS011;35993;52.604;10.078;2022-08-21T15:37:38;3.67;;;1.70;;
50102;SDS011;35993;52.604;10.078;2022-08-21T15:40:05;4.32;;;1.60;;
50102;SDS011;35993;52.604;10.078;2022-08-21T15:42:32;3.10;;;1.50;;
50102;SDS011;35993;52.604;10.078;2022-08-21T15:44:59;4.60;;;1.52;;
50102;SDS011;35993;52.604;10.078;2022-08-21T15:47:28;3.25;;;1.42;;
50102;SDS011;35993;52.604;10.078;2022-08-21T15:49:56;3.65;;;1.55;;
50102;SDS011;35993;52.604;10.078;2022-08-21T15:52:22;3.80;;;1.65;;
50102;SDS011;35993;52.604;10.078;2022-08-21T15:54:48;5.80;;;1.73;;
50102;SDS011;35993;52.604;10.078;2022-08-21T15:57:16;2.45;;;1.50;;
50102;SDS011;35993;52.604;10.078;2022-08-21T15:59:45;3.50;;;1.60;;
50102;SDS011;35993;52.604;10.078;2022-08-21T16:02:14;3.53;;;1.52;;
50102;SDS011;35993;52.604;10.078;2022-08-21T16:04:44;4.50;;;1.45;;
50102;SDS011;35993;52.604;10.078;2022-08-21T16:07:10;5.78;;;1.75;;
50102;SDS011;35993;52.604;10.078;2022-08-21T16:09:36;4.32;;;1.40;;
50102;SDS011;35993;52.604;10.078;2022-08-21T16:12:03;4.07;;;1.60;;